createdAt,value
2018-09-14T00:00:18.609Z,5.53
2018-09-14T00:02:46.497Z,5.60
2018-09-14T00:05:14.388Z,5.70
2018-09-14T00:07:42.254Z,5.13
2018-09-14T00:10:10.161Z,6.00
2018-09-14T00:12:38.009Z,6.03
2018-09-14T00:15:05.852Z,5.50
2018-09-14T00:17:34.001Z,4.90
2018-09-14T00:20:01.899Z,6.10
2018-09-14T00:22:29.674Z,5.70
2018-09-14T00:24:57.572Z,5.63
2018-09-14T00:27:25.361Z,6.20
2018-09-14T00:29:53.188Z,5.70
2018-09-14T00:32:21.032Z,6.30
2018-09-14T00:34:48.837Z,5.97
2018-09-14T00:37:17.289Z,6.30
2018-09-14T00:39:45.157Z,6.20
2018-09-14T00:42:12.937Z,6.53
2018-09-14T00:44:40.722Z,6.80
2018-09-14T00:47:08.583Z,6.93
2018-09-14T00:49:36.577Z,6.80
2018-09-14T00:52:04.389Z,6.63
2018-09-14T00:54:32.148Z,6.87
2018-09-14T00:56:59.977Z,6.17
2018-09-14T00:59:27.922Z,6.70
2018-09-14T01:01:55.810Z,6.23
2018-09-14T01:04:23.733Z,6.30
2018-09-14T01:06:51.516Z,6.03
2018-09-14T01:09:27.414Z,6.27
2018-09-14T01:11:56.860Z,6.47
2018-09-14T01:14:25.581Z,6.67
2018-09-14T01:16:53.949Z,6.53
2018-09-14T01:19:21.749Z,6.13
2018-09-14T01:21:49.568Z,5.87
2018-09-14T01:24:17.361Z,6.23
2018-09-14T01:26:45.151Z,6.87
2018-09-14T01:29:13.032Z,6.03
2018-09-14T01:31:40.877Z,6.43
2018-09-14T01:34:08.761Z,6.40
2018-09-14T01:36:36.597Z,6.00
2018-09-14T01:39:07.717Z,6.70
2018-09-14T01:41:35.576Z,6.60
2018-09-14T01:44:03.463Z,5.77
2018-09-14T01:46:31.252Z,6.50
2018-09-14T01:48:59.110Z,6.53
2018-09-14T01:51:26.929Z,6.10
2018-09-14T01:53:54.952Z,6.53
2018-09-14T01:56:22.735Z,7.17
2018-09-14T01:58:50.540Z,6.97
2018-09-14T02:01:19.705Z,7.13
2018-09-14T02:03:48.022Z,7.03
2018-09-14T02:06:15.887Z,7.47
2018-09-14T02:08:43.753Z,7.90
2018-09-14T02:11:11.665Z,7.83
2018-09-14T02:13:39.456Z,7.60
2018-09-14T02:16:07.281Z,7.70
2018-09-14T02:18:35.145Z,7.73
2018-09-14T02:21:02.989Z,7.47
2018-09-14T02:23:30.788Z,7.60
2018-09-14T02:25:58.549Z,8.33
2018-09-14T02:28:26.366Z,7.60
2018-09-14T02:30:55.885Z,7.27
2018-09-14T02:33:23.846Z,7.90
2018-09-14T02:35:51.763Z,7.50
2018-09-14T02:38:19.637Z,6.63
2018-09-14T02:40:47.443Z,6.90
2018-09-14T02:43:15.377Z,7.60
2018-09-14T02:45:43.213Z,7.47
2018-09-14T02:48:11.134Z,7.70
2018-09-14T02:50:38.942Z,7.10
2018-09-14T02:53:06.732Z,7.57
2018-09-14T02:55:34.585Z,7.63
2018-09-14T02:58:02.417Z,6.80
2018-09-14T03:00:30.237Z,6.87
2018-09-14T03:02:58.899Z,7.17
2018-09-14T03:05:26.753Z,7.33
2018-09-14T03:07:54.620Z,7.00
2018-09-14T03:10:22.433Z,6.67
2018-09-14T03:12:50.329Z,6.70
2018-09-14T03:15:18.313Z,6.57
2018-09-14T03:17:46.280Z,6.47
2018-09-14T03:20:14.281Z,6.70
2018-09-14T03:22:42.187Z,6.90
2018-09-14T03:25:10.029Z,6.47
2018-09-14T03:27:37.925Z,6.77
2018-09-14T03:30:05.841Z,6.40
2018-09-14T03:32:34.539Z,6.60
2018-09-14T03:35:02.429Z,6.67
2018-09-14T03:37:30.877Z,6.93
2018-09-14T03:39:58.749Z,7.27
2018-09-14T03:42:29.001Z,7.47
2018-09-14T03:44:57.313Z,7.60
2018-09-14T03:47:25.645Z,7.83
2018-09-14T03:49:53.485Z,7.23
2018-09-14T03:52:21.301Z,7.67
2018-09-14T03:54:49.092Z,8.47
2018-09-14T03:57:17.057Z,8.07
2018-09-14T03:59:44.815Z,7.43
2018-09-14T04:02:12.606Z,7.93
2018-09-14T04:04:40.405Z,8.60
2018-09-14T04:07:08.226Z,7.80
2018-09-14T04:09:35.993Z,7.70
2018-09-14T04:12:03.804Z,8.10
2018-09-14T04:14:31.929Z,8.57
2018-09-14T04:16:59.837Z,8.63
2018-09-14T04:19:27.620Z,9.17
2018-09-14T04:21:55.640Z,8.73
2018-09-14T04:24:23.538Z,8.13
2018-09-14T04:26:51.416Z,8.27
2018-09-14T04:29:19.257Z,8.50
2018-09-14T04:31:47.200Z,8.50
2018-09-14T04:34:15.106Z,8.33
2018-09-14T04:36:42.991Z,8.63
2018-09-14T04:39:10.868Z,9.83
2018-09-14T04:41:38.918Z,9.40
2018-09-14T04:44:06.879Z,9.80
2018-09-14T04:46:35.760Z,9.90
2018-09-14T04:49:03.665Z,9.30
2018-09-14T04:51:31.866Z,9.50
2018-09-14T04:53:59.641Z,10.10
2018-09-14T04:56:27.517Z,10.10
2018-09-14T04:58:55.405Z,10.33
2018-09-14T05:01:23.378Z,10.57
2018-09-14T05:03:51.564Z,10.23
2018-09-14T05:06:19.561Z,10.77
2018-09-14T05:08:47.514Z,9.70
2018-09-14T05:11:15.597Z,10.23
2018-09-14T05:13:43.485Z,9.37
2018-09-14T05:16:11.321Z,9.60
2018-09-14T05:18:39.269Z,9.53
2018-09-14T05:21:07.792Z,9.47
2018-09-14T05:23:35.609Z,9.00
2018-09-14T05:26:03.509Z,8.90
2018-09-14T05:28:31.372Z,8.60
2018-09-14T05:30:59.238Z,9.37
2018-09-14T05:33:27.153Z,8.67
2018-09-14T05:35:55.165Z,9.27
2018-09-14T05:38:23.159Z,8.07
2018-09-14T05:40:51.064Z,9.40
2018-09-14T05:43:19.081Z,9.07
2018-09-14T05:45:49.271Z,8.87
2018-09-14T05:48:17.170Z,8.23
2018-09-14T05:50:45.344Z,9.03
2018-09-14T05:53:13.190Z,8.50
2018-09-14T05:55:41.623Z,8.47
2018-09-14T05:58:09.483Z,9.37
2018-09-14T06:00:37.349Z,9.00
2018-09-14T06:03:05.174Z,8.37
2018-09-14T06:05:33.045Z,8.40
2018-09-14T06:08:00.930Z,8.50
2018-09-14T06:10:28.777Z,8.67
2018-09-14T06:12:56.788Z,8.83
2018-09-14T06:15:24.609Z,8.80
2018-09-14T06:17:52.952Z,8.17
2018-09-14T06:20:20.848Z,7.90
2018-09-14T06:22:48.688Z,8.07
2018-09-14T06:25:17.299Z,8.83
2018-09-14T06:27:45.130Z,8.17
2018-09-14T06:30:12.969Z,8.97
2018-09-14T06:32:40.743Z,9.03
2018-09-14T06:35:08.541Z,8.87
2018-09-14T06:37:36.304Z,8.77
2018-09-14T06:40:04.133Z,9.90
2018-09-14T06:42:31.936Z,8.57
2018-09-14T06:44:59.728Z,8.93
2018-09-14T06:47:27.540Z,8.83
2018-09-14T06:49:55.416Z,8.80
2018-09-14T06:52:23.213Z,8.83
2018-09-14T06:54:51.081Z,8.40
2018-09-14T06:57:18.890Z,9.03
2018-09-14T06:59:46.829Z,8.23
2018-09-14T07:02:14.644Z,8.60
2018-09-14T07:04:42.437Z,8.53
2018-09-14T07:07:10.213Z,9.17
2018-09-14T07:09:37.980Z,8.57
2018-09-14T07:12:05.761Z,9.40
2018-09-14T07:14:33.575Z,9.20
2018-09-14T07:17:01.373Z,8.93
2018-09-14T07:19:30.152Z,8.07
2018-09-14T07:21:58.015Z,8.40
2018-09-14T07:24:25.906Z,8.03
2018-09-14T07:26:53.595Z,8.10
2018-09-14T07:29:21.435Z,7.70
2018-09-14T07:31:49.348Z,8.03
2018-09-14T07:34:17.201Z,8.10
2018-09-14T07:36:45.005Z,8.10
2018-09-14T07:39:12.805Z,7.23
2018-09-14T07:41:40.781Z,7.57
2018-09-14T07:44:08.595Z,7.00
2018-09-14T07:46:36.394Z,7.57
2018-09-14T07:49:04.234Z,8.20
2018-09-14T07:51:32.060Z,7.57
2018-09-14T07:53:59.858Z,8.00
2018-09-14T07:56:27.666Z,7.40
2018-09-14T07:58:56.061Z,7.53
2018-09-14T08:01:24.033Z,7.03
2018-09-14T08:03:51.877Z,6.00
2018-09-14T08:06:19.725Z,5.57
2018-09-14T08:08:47.746Z,5.90
2018-09-14T08:11:15.743Z,6.80
2018-09-14T08:13:43.561Z,6.83
2018-09-14T08:16:11.329Z,7.10
2018-09-14T08:18:39.145Z,7.33
2018-09-14T08:21:06.981Z,7.57
2018-09-14T08:23:34.719Z,8.00
2018-09-14T08:26:02.498Z,6.63
2018-09-14T08:28:30.265Z,6.87
2018-09-14T08:30:58.064Z,6.93
2018-09-14T08:33:25.869Z,6.57
2018-09-14T08:35:53.672Z,5.43
2018-09-14T08:38:21.472Z,5.40
2018-09-14T08:40:49.337Z,5.03
2018-09-14T08:43:17.354Z,5.47
2018-09-14T08:45:45.281Z,5.93
2018-09-14T08:48:13.122Z,5.50
2018-09-14T08:50:40.912Z,6.23
2018-09-14T08:53:08.677Z,6.33
2018-09-14T08:55:36.461Z,5.63
2018-09-14T08:58:05.254Z,5.60
2018-09-14T09:00:33.124Z,5.30
2018-09-14T09:03:00.912Z,5.07
2018-09-14T09:05:28.705Z,4.80
2018-09-14T09:07:56.523Z,3.77
2018-09-14T09:10:24.319Z,3.00
2018-09-14T09:12:52.221Z,3.47
2018-09-14T09:15:20.080Z,3.57
2018-09-14T09:17:48.072Z,3.20
2018-09-14T09:20:16.010Z,2.77
2018-09-14T09:22:43.824Z,2.90
2018-09-14T09:25:11.653Z,2.67
2018-09-14T09:27:39.434Z,2.90
2018-09-14T09:30:07.310Z,2.83
2018-09-14T09:32:35.153Z,3.20
2018-09-14T09:35:03.017Z,3.17
2018-09-14T09:37:30.793Z,3.40
2018-09-14T09:39:58.594Z,3.10
2018-09-14T09:42:26.473Z,2.83
2018-09-14T09:44:54.271Z,3.12
2018-09-14T09:47:22.046Z,3.02
2018-09-14T09:49:49.931Z,2.95
2018-09-14T09:52:17.769Z,2.95
2018-09-14T09:54:45.614Z,2.75
2018-09-14T09:57:13.394Z,2.62
2018-09-14T09:59:41.272Z,2.37
2018-09-14T10:02:14.929Z,2.60
2018-09-14T10:06:50.928Z,3.50
2018-09-14T10:09:18.845Z,2.92
2018-09-14T10:11:46.639Z,3.58
2018-09-14T10:14:14.587Z,3.42
2018-09-14T10:16:42.281Z,3.30
2018-09-14T10:19:10.133Z,3.40
2018-09-14T10:21:37.943Z,3.58
2018-09-14T10:24:05.557Z,3.95
2018-09-14T10:26:33.389Z,3.92
2018-09-14T10:29:01.227Z,3.80
2018-09-14T10:31:29.021Z,3.50
2018-09-14T10:33:56.993Z,3.83
2018-09-14T10:36:24.729Z,3.70
2018-09-14T10:38:52.588Z,3.83
2018-09-14T10:41:20.350Z,3.60
2018-09-14T10:43:48.225Z,4.10
2018-09-14T10:46:16.020Z,3.75
2018-09-14T10:48:44.195Z,4.35
2018-09-14T10:51:12.033Z,4.45
2018-09-14T10:53:39.827Z,4.00
2018-09-14T10:56:07.585Z,4.50
2018-09-14T10:58:41.029Z,4.40
2018-09-14T11:01:09.029Z,4.58
2018-09-14T11:03:36.821Z,4.55
2018-09-14T11:06:04.603Z,4.72
2018-09-14T11:08:32.460Z,6.17
2018-09-14T11:11:00.234Z,4.05
2018-09-14T11:13:28.121Z,4.87
2018-09-14T11:15:55.933Z,4.25
2018-09-14T11:18:23.753Z,4.83
2018-09-14T11:20:51.553Z,4.80
2018-09-14T11:23:19.625Z,5.35
2018-09-14T11:25:47.501Z,5.28
2018-09-14T11:28:15.260Z,4.78
2018-09-14T11:30:43.061Z,4.92
2018-09-14T11:33:10.848Z,5.35
2018-09-14T11:35:38.648Z,5.40
2018-09-14T11:38:06.477Z,6.22
2018-09-14T11:40:34.216Z,6.03
2018-09-14T11:43:02.036Z,5.75
2018-09-14T11:45:30.333Z,5.95
2018-09-14T11:47:58.165Z,5.22
2018-09-14T11:50:25.989Z,5.05
2018-09-14T11:52:53.788Z,5.47
2018-09-14T11:55:21.589Z,4.95
2018-09-14T11:57:49.586Z,5.42
2018-09-14T12:00:17.648Z,4.58
2018-09-14T12:02:45.496Z,4.33
2018-09-14T12:05:13.271Z,5.47
2018-09-14T12:07:41.090Z,6.00
2018-09-14T12:10:09.185Z,5.20
2018-09-14T12:12:36.993Z,5.35
2018-09-14T12:15:04.878Z,4.60
2018-09-14T12:17:32.669Z,5.00
2018-09-14T12:20:00.511Z,5.40
2018-09-14T12:22:28.297Z,6.12
2018-09-14T12:24:56.133Z,5.70
2018-09-14T12:27:24.085Z,5.90
2018-09-14T12:29:51.945Z,5.67
2018-09-14T12:32:19.924Z,6.22
2018-09-14T12:34:47.855Z,5.58
2018-09-14T12:37:15.660Z,6.62
2018-09-14T12:39:43.466Z,6.62
2018-09-14T12:42:12.129Z,7.12
2018-09-14T12:44:39.916Z,6.25
2018-09-14T12:47:07.705Z,6.17
2018-09-14T12:49:35.517Z,5.55
2018-09-14T12:52:03.301Z,6.08
2018-09-14T12:54:31.117Z,5.65
2018-09-14T12:56:58.904Z,5.95
2018-09-14T12:59:26.713Z,6.53
2018-09-14T13:01:54.536Z,6.70
2018-09-14T13:04:22.409Z,6.12
2018-09-14T13:06:50.491Z,6.00
2018-09-14T13:09:18.296Z,5.65
2018-09-14T13:11:46.115Z,5.60
2018-09-14T13:14:18.780Z,6.25
2018-09-14T13:16:47.048Z,6.75
2018-09-14T13:19:14.857Z,5.72
2018-09-14T13:21:42.633Z,5.40
2018-09-14T13:24:10.536Z,6.00
2018-09-14T13:26:38.334Z,6.12
2018-09-14T13:29:06.155Z,6.30
2018-09-14T13:31:33.908Z,5.87
2018-09-14T13:34:01.698Z,6.17
2018-09-14T13:36:29.546Z,5.42
2018-09-14T13:38:57.564Z,5.42
2018-09-14T13:41:25.346Z,5.75
2018-09-14T13:43:53.277Z,4.95
2018-09-14T13:46:21.091Z,6.08
2018-09-14T13:48:48.997Z,5.87
2018-09-14T13:51:16.792Z,6.15
2018-09-14T13:53:44.606Z,5.28
2018-09-14T13:56:12.425Z,5.28
2018-09-14T13:58:40.239Z,5.50
2018-09-14T14:01:08.061Z,5.72
2018-09-14T14:03:35.808Z,5.65
2018-09-14T14:06:03.641Z,5.25
2018-09-14T14:08:31.436Z,5.00
2018-09-14T14:10:59.382Z,4.95
2018-09-14T14:13:27.241Z,5.20
2018-09-14T14:15:55.133Z,6.00
2018-09-14T14:18:22.941Z,5.60
2018-09-14T14:20:50.889Z,4.83
2018-09-14T14:23:18.746Z,4.70
2018-09-14T14:25:46.525Z,4.35
2018-09-14T14:28:14.341Z,5.10
2018-09-14T14:30:42.124Z,5.33
2018-09-14T14:33:09.884Z,4.85
2018-09-14T14:35:37.856Z,4.87
2018-09-14T14:38:05.713Z,4.50
2018-09-14T14:40:33.517Z,4.47
2018-09-14T14:43:01.291Z,4.62
2018-09-14T14:45:29.154Z,4.67
2018-09-14T14:47:56.973Z,4.17
2018-09-14T14:50:24.789Z,4.42
2018-09-14T14:52:52.624Z,4.60
2018-09-14T14:55:20.503Z,4.28
2018-09-14T14:57:48.325Z,4.12
2018-09-14T15:00:16.121Z,5.20
2018-09-14T15:02:43.897Z,4.33
2018-09-14T15:05:11.687Z,3.40
2018-09-14T15:07:39.476Z,3.02
2018-09-14T15:10:07.280Z,3.90
2018-09-14T15:12:35.125Z,3.25
2018-09-14T15:15:02.969Z,3.20
2018-09-14T15:17:30.821Z,3.15
2018-09-14T15:19:58.629Z,3.27
2018-09-14T15:22:26.425Z,3.20
2018-09-14T15:24:54.197Z,3.27
2018-09-14T15:27:22.076Z,3.40
2018-09-14T15:29:49.938Z,3.40
2018-09-14T15:32:17.760Z,3.80
2018-09-14T15:34:45.582Z,3.03
2018-09-14T15:37:13.420Z,3.20
2018-09-14T15:39:41.190Z,3.43
2018-09-14T15:42:09.012Z,3.23
2018-09-14T15:44:36.776Z,2.97
2018-09-14T15:47:04.578Z,3.97
2018-09-14T15:49:32.341Z,3.30
2018-09-14T15:52:00.165Z,3.00
2018-09-14T15:54:27.944Z,3.10
2018-09-14T15:56:55.756Z,2.90
2018-09-14T15:59:23.620Z,3.50
2018-09-14T16:01:51.493Z,2.90
2018-09-14T16:04:19.474Z,3.43
2018-09-14T16:06:47.309Z,3.50
2018-09-14T16:09:15.200Z,3.20
2018-09-14T16:11:42.982Z,3.23
2018-09-14T16:14:10.773Z,3.20
2018-09-14T16:16:38.589Z,3.40
2018-09-14T16:19:06.497Z,3.17
2018-09-14T16:21:34.196Z,3.47
2018-09-14T16:24:02.042Z,3.43
2018-09-14T16:26:31.724Z,3.40
2018-09-14T16:28:59.464Z,3.27
2018-09-14T16:31:27.243Z,3.40
2018-09-14T16:33:55.112Z,3.23
2018-09-14T16:36:22.996Z,3.50
2018-09-14T16:38:50.997Z,3.03
2018-09-14T16:41:18.775Z,3.47
2018-09-14T16:43:46.553Z,3.20
2018-09-14T16:46:14.305Z,3.50
2018-09-14T16:48:42.145Z,3.57
2018-09-14T16:51:09.913Z,3.17
2018-09-14T16:53:37.750Z,3.00
2018-09-14T16:56:05.601Z,2.97
2018-09-14T16:58:33.403Z,2.97
2018-09-14T17:01:01.239Z,2.67
2018-09-14T17:03:29.068Z,3.70
2018-09-14T17:05:56.997Z,3.13
2018-09-14T17:08:24.797Z,3.37
2018-09-14T17:10:52.565Z,3.30
2018-09-14T17:13:20.364Z,3.60
2018-09-14T17:15:48.165Z,3.00
2018-09-14T17:18:15.977Z,3.30
2018-09-14T17:20:43.802Z,3.20
2018-09-14T17:23:11.569Z,3.30
2018-09-14T17:25:39.349Z,3.60
2018-09-14T17:28:07.578Z,3.73
2018-09-14T17:30:35.402Z,4.30
2018-09-14T17:33:03.225Z,4.13
2018-09-14T17:35:31.108Z,4.20
2018-09-14T17:37:58.891Z,4.93
2018-09-14T17:40:26.693Z,4.70
2018-09-14T17:42:54.545Z,4.50
2018-09-14T17:45:22.472Z,4.40
2018-09-14T17:47:50.273Z,4.60
2018-09-14T17:50:18.061Z,4.70
2018-09-14T17:52:45.864Z,5.23
2018-09-14T17:55:13.665Z,4.90
2018-09-14T17:57:41.445Z,5.80
2018-09-14T18:00:09.322Z,6.07
2018-09-14T18:02:37.165Z,5.80
2018-09-14T18:05:05.041Z,6.27
2018-09-14T18:07:32.829Z,5.43
2018-09-14T18:10:00.661Z,6.37
2018-09-14T18:12:28.453Z,5.80
2018-09-14T18:14:56.533Z,5.80
2018-09-14T18:17:24.817Z,5.23
2018-09-14T18:19:52.752Z,5.33
2018-09-14T18:22:20.773Z,5.43
2018-09-14T18:24:48.550Z,5.00
2018-09-14T18:27:16.423Z,5.20
2018-09-14T18:29:44.209Z,5.40
2018-09-14T18:32:12.049Z,5.07
2018-09-14T18:34:40.100Z,5.43
2018-09-14T18:37:07.973Z,4.90
2018-09-14T18:39:35.816Z,5.60
2018-09-14T18:42:03.622Z,5.20
2018-09-14T18:44:31.453Z,5.47
2018-09-14T18:46:59.229Z,4.90
2018-09-14T18:49:27.118Z,5.30
2018-09-14T18:51:56.493Z,6.07
2018-09-14T18:54:24.364Z,7.03
2018-09-14T18:56:52.400Z,7.40
2018-09-14T18:59:20.334Z,7.80
2018-09-14T19:01:48.165Z,8.13
2018-09-14T19:04:16.080Z,9.13
2018-09-14T19:06:43.927Z,7.50
2018-09-14T19:09:12.231Z,6.50
2018-09-14T19:11:40.266Z,5.77
2018-09-14T19:14:08.168Z,5.50
2018-09-14T19:16:36.364Z,4.67
2018-09-14T19:19:04.185Z,5.43
2018-09-14T19:21:32.034Z,5.17
2018-09-14T19:23:59.797Z,5.70
2018-09-14T19:26:27.603Z,5.07
2018-09-14T19:28:55.557Z,5.50
2018-09-14T19:31:23.552Z,5.27
2018-09-14T19:33:51.501Z,5.37
2018-09-14T19:36:19.385Z,5.13
2018-09-14T19:38:47.257Z,5.17
2018-09-14T19:41:15.035Z,5.50
2018-09-14T19:43:42.844Z,5.67
2018-09-14T19:46:10.675Z,5.50
2018-09-14T19:48:38.522Z,5.20
2018-09-14T19:51:06.398Z,6.00
2018-09-14T19:53:34.290Z,6.03
2018-09-14T19:56:11.178Z,5.07
2018-09-14T19:58:39.231Z,4.70
2018-09-14T20:01:07.154Z,5.17
2018-09-14T20:03:35.049Z,5.03
2018-09-14T20:06:03.538Z,5.00
2018-09-14T20:08:31.340Z,5.60
2018-09-14T20:10:59.231Z,5.30
2018-09-14T20:13:27.041Z,4.90
2018-09-14T20:15:57.040Z,5.63
2018-09-14T20:18:25.018Z,4.87
2018-09-14T20:20:53.095Z,5.60
2018-09-14T20:23:21.037Z,5.70
2018-09-14T20:25:49.575Z,5.57
2018-09-14T20:28:17.442Z,5.97
2018-09-14T20:30:45.241Z,5.50
2018-09-14T20:33:13.063Z,5.47
2018-09-14T20:35:40.924Z,5.50
2018-09-14T20:38:08.857Z,5.40
2018-09-14T20:40:36.694Z,5.27
2018-09-14T20:43:04.585Z,5.03
2018-09-14T20:45:32.473Z,4.77
2018-09-14T20:48:00.311Z,4.83
2018-09-14T20:50:28.163Z,4.90
2018-09-14T20:52:55.965Z,4.70
2018-09-14T20:55:23.778Z,4.90
2018-09-14T20:57:51.596Z,4.70
2018-09-14T21:00:23.126Z,4.83
2018-09-14T21:02:51.284Z,5.10
2018-09-14T21:05:19.104Z,4.93
2018-09-14T21:07:50.757Z,5.23
2018-09-14T21:10:22.293Z,5.20
2018-09-14T21:12:50.351Z,5.07
2018-09-14T21:15:18.141Z,5.17
2018-09-14T21:17:45.996Z,5.57
2018-09-14T21:20:13.825Z,5.10
2018-09-14T21:22:42.158Z,4.97
2018-09-14T21:25:09.936Z,5.27
2018-09-14T21:27:37.740Z,6.40
2018-09-14T21:30:06.705Z,5.90
2018-09-14T21:32:35.057Z,5.43
2018-09-14T21:35:02.914Z,5.33
2018-09-14T21:37:30.698Z,5.13
2018-09-14T21:39:58.537Z,5.00
2018-09-14T21:42:26.302Z,5.03
2018-09-14T21:44:54.188Z,7.63
2018-09-14T21:47:22.005Z,5.57
2018-09-14T21:49:49.768Z,5.03
2018-09-14T21:52:17.545Z,5.20
2018-09-14T21:54:45.629Z,5.23
2018-09-14T21:57:13.433Z,6.17
2018-09-14T21:59:42.563Z,5.60
2018-09-14T22:02:10.397Z,6.30
2018-09-14T22:04:45.295Z,5.37
2018-09-14T22:07:13.099Z,5.17
2018-09-14T22:09:41.038Z,4.83
2018-09-14T22:12:08.813Z,5.07
2018-09-14T22:14:36.683Z,5.23
2018-09-14T22:17:04.499Z,5.03
2018-09-14T22:19:32.325Z,4.77
2018-09-14T22:22:00.231Z,4.90
2018-09-14T22:24:27.986Z,4.67
2018-09-14T22:26:55.825Z,5.37
2018-09-14T22:29:23.787Z,4.80
2018-09-14T22:31:51.747Z,4.90
2018-09-14T22:34:19.561Z,5.17
2018-09-14T22:36:47.345Z,5.40
2018-09-14T22:39:15.273Z,5.10
2018-09-14T22:41:43.382Z,5.37
2018-09-14T22:44:11.140Z,5.13
2018-09-14T22:46:38.996Z,5.23
2018-09-14T22:49:06.807Z,5.23
2018-09-14T22:51:34.653Z,5.43
2018-09-14T22:54:02.483Z,5.07
2018-09-14T22:56:30.340Z,5.13
2018-09-14T22:58:58.193Z,4.80
2018-09-14T23:01:26.118Z,4.20
2018-09-14T23:03:53.904Z,4.97
2018-09-14T23:06:21.846Z,5.03
2018-09-14T23:08:49.597Z,4.77
2018-09-14T23:11:17.370Z,4.90
2018-09-14T23:13:45.149Z,5.63
2018-09-14T23:16:13.485Z,5.53
2018-09-14T23:18:41.245Z,5.57
2018-09-14T23:21:09.273Z,5.33
2018-09-14T23:23:37.045Z,5.40
2018-09-14T23:26:07.832Z,5.30
2018-09-14T23:28:35.792Z,5.10
2018-09-14T23:31:03.614Z,5.07
2018-09-14T23:33:31.365Z,5.00
2018-09-14T23:35:59.197Z,5.20
2018-09-14T23:38:27.077Z,4.57
2018-09-14T23:40:55.003Z,4.60
2018-09-14T23:43:22.856Z,4.90
2018-09-14T23:45:50.649Z,5.20
2018-09-14T23:48:18.420Z,5.20
2018-09-14T23:50:46.230Z,5.53
2018-09-14T23:53:14.049Z,5.60
2018-09-14T23:55:41.875Z,5.30
2018-09-14T23:58:09.665Z,5.00
